ICT weather

Wichita Eisenhower National Airport
Wichita, Kansas, United States

Public forecast

Using degrees Fahrenheit for public forecast. Weather courtesy of forecast.io.

Current aviation weather report (METAR) for Wichita Eisenhower National Airport

Retrieved 2020/07/12 08:53 UTC (1 hour ago):

KICT 120853Z 03007KT 10SM OVC250 26/21 A3000 RMK AO2 SLP140 T02560211 55000

Aviation forecast (TAF) for Wichita Eisenhower National Airport

Retrieved 2020/07/12 06:22 UTC (4 hours ago):

TAF KICT 120520Z 1206/1306 02008KT P6SM SCT050 OVC120 FM120700 VRB06KT P6SM FEW050 BKN150 FM121200 03008KT P6SM SCT250 FM121400 06008KT P6SM SKC FM130000 09008KT P6SM SKC FM130300 11006KT P6SM FEW250